Time;durP1;ratioP1;P1;durP2;ratioP2;P2;SDS_P1;SDS_P2;PMS_P1;PMS_P2;Temp;Humidity;BMP_temperature;BMP_pressure;BME280_temperature;BME280_humidity;BME280_pressure;Samples;Min_cycle;Max_cycle;Signal;HPM_P1;HPM_P2
2022/07/06 00:01:22;;;;;;;;;0.00;0.00;;;;;-146.67;27.23;74601.72;5063002;28;61911;-83
2022/07/06 00:03:48;;;;;;;;;0.00;0.00;;;;;-146.67;26.85;74617.69;5061744;28;61863;-83
2022/07/06 00:06:13;;;;;;;;;0.00;0.00;;;;;-146.67;27.06;74633.69;5062602;28;61817;-85
2022/07/06 00:08:39;;;;;;;;;0.00;0.00;;;;;-146.67;27.05;74641.66;5062302;28;62322;-83
2022/07/06 00:11:05;;;;;;;;;0.00;0.00;;;;;-146.67;26.89;74647.66;5063031;28;61718;-83
2022/07/06 00:13:31;;;;;;;;;0.00;0.00;;;;;-146.67;27.49;74661.63;5060239;28;64226;-83
2022/07/06 00:15:57;;;;;;;;;0.00;0.00;;;;;-146.67;27.10;74667.63;5062721;28;61724;-83
2022/07/06 00:18:22;;;;;;;;;0.00;0.00;;;;;-146.67;27.47;74681.59;5061849;28;61816;-83
2022/07/06 00:20:48;;;;;;;;;0.00;0.00;;;;;-146.67;27.87;74677.59;5062056;28;62122;-83
2022/07/06 00:23:13;;;;;;;;;0.00;0.00;;;;;-146.67;27.90;74683.59;5060151;28;63727;-83
2022/07/06 00:25:39;;;;;;;;;0.00;0.00;;;;;-146.67;27.97;74675.59;5062125;28;62501;-83
2022/07/06 00:28:04;;;;;;;;;0.00;0.00;;;;;-146.67;27.96;74681.59;5062577;28;61733;-83
2022/07/06 00:30:30;;;;;;;;;0.00;0.00;;;;;-146.67;28.24;74677.59;5060787;28;61850;-83
2022/07/06 00:32:55;;;;;;;;;0.00;0.00;;;;;-146.67;27.47;74689.56;5059642;28;64245;-83
2022/07/06 00:35:21;;;;;;;;;0.00;0.00;;;;;-146.67;28.06;74687.56;5062379;28;61738;-83
2022/07/06 00:37:46;;;;;;;;;0.00;0.00;;;;;-146.67;28.01;74695.56;5060567;28;61807;-83
2022/07/06 00:40:12;;;;;;;;;0.00;0.00;;;;;-146.67;28.38;74697.56;5062663;28;62130;-83
2022/07/06 00:42:42;;;;;;;;;0.00;0.00;;;;;-146.67;27.94;74695.56;5061389;28;61812;-83
2022/07/06 00:45:09;;;;;;;;;0.00;0.00;;;;;-146.67;27.96;74691.56;5062252;28;62001;-83
2022/07/06 00:47:34;;;;;;;;;0.00;0.00;;;;;-146.67;27.96;74697.56;5061761;28;61848;-83
2022/07/06 00:50:17;;;;;;;;;0.00;0.00;;;;;-146.67;27.64;74701.56;5062561;28;61824;-83
2022/07/06 00:52:47;;;;;;;;;0.00;0.00;;;;;-146.67;27.96;74711.53;5060653;28;62727;-82
2022/07/06 00:55:13;;;;;;;;;0.00;0.00;;;;;-146.67;28.04;74715.53;5060833;28;61828;-82
2022/07/06 00:57:40;;;;;;;;;0.00;0.00;;;;;-146.67;28.17;74715.53;5060368;28;61812;-82
2022/07/06 01:00:09;;;;;;;;;0.00;0.00;;;;;-146.67;27.88;74723.50;5061001;28;62222;-82
2022/07/06 01:02:35;;;;;;;;;0.00;0.00;;;;;-146.67;28.55;74729.50;5060865;28;61893;-82
2022/07/06 01:05:03;;;;;;;;;0.00;0.00;;;;;-146.67;28.45;74729.50;5062090;28;62021;-83
2022/07/06 01:07:28;;;;;;;;;0.00;0.00;;;;;-146.67;28.31;74735.50;5060026;28;61897;-82
2022/07/06 01:09:54;;;;;;;;;0.00;0.00;;;;;-146.67;28.48;74761.44;5062067;28;62059;-82
2022/07/06 01:12:20;;;;;;;;;0.00;0.00;;;;;-146.67;27.81;74769.44;5061411;28;62928;-82
2022/07/06 01:14:47;;;;;;;;;0.00;0.00;;;;;-146.67;28.57;74783.41;5053687;28;62190;-82
2022/07/06 01:17:13;;;;;;;;;0.00;0.00;;;;;-146.67;28.55;74789.41;5059999;28;62153;-82
2022/07/06 01:19:39;;;;;;;;;0.00;0.00;;;;;-146.67;28.55;74793.41;5061770;28;61788;-83
2022/07/06 01:22:05;;;;;;;;;0.00;0.00;;;;;-146.67;28.29;74793.41;5060829;28;62104;-81
2022/07/06 01:24:30;;;;;;;;;0.00;0.00;;;;;-146.67;28.81;74799.38;5060701;28;61872;-82
2022/07/06 01:26:55;;;;;;;;;0.00;0.00;;;;;-146.67;28.91;74795.41;5061703;28;61828;-82
2022/07/06 01:29:21;;;;;;;;;0.00;0.00;;;;;-146.67;28.77;74795.41;5061757;28;61809;-82
2022/07/06 01:31:48;;;;;;;;;0.00;0.00;;;;;-146.67;29.13;74795.41;5060427;28;62025;-82
2022/07/06 01:34:15;;;;;;;;;0.00;0.00;;;;;-146.67;29.01;74795.41;5061833;28;61812;-82
2022/07/06 01:36:41;;;;;;;;;0.00;0.00;;;;;-146.67;29.06;74799.38;5061014;28;62159;-82
2022/07/06 01:39:08;;;;;;;;;0.00;0.00;;;;;-146.67;29.01;74801.38;5061816;28;61728;-82
2022/07/06 01:41:33;;;;;;;;;0.00;0.00;;;;;-146.67;29.09;74805.38;5060945;28;62574;-82
2022/07/06 01:43:58;;;;;;;;;0.00;0.00;;;;;-146.67;29.45;74803.38;5061192;28;61794;-82
2022/07/06 01:46:24;;;;;;;;;0.00;0.00;;;;;-146.67;29.05;74815.38;5064378;28;61790;-82
2022/07/06 01:48:49;;;;;;;;;0.00;0.00;;;;;-146.67;28.51;74811.38;5064849;28;61902;-82
2022/07/06 01:51:15;;;;;;;;;0.00;0.00;;;;;-146.67;29.16;74813.38;5064022;28;61958;-82
2022/07/06 01:53:41;;;;;;;;;0.00;0.00;;;;;-146.67;28.88;74831.34;5064071;28;61931;-82
2022/07/06 01:56:07;;;;;;;;;0.00;0.00;;;;;-146.67;29.01;74845.31;5063600;28;61976;-82
2022/07/06 01:58:32;;;;;;;;;0.00;0.00;;;;;-146.67;29.01;74851.31;5064632;28;62046;-83
2022/07/06 02:00:58;;;;;;;;;0.00;0.00;;;;;-146.67;29.14;74863.28;5062353;28;65086;-82
2022/07/06 02:03:23;;;;;;;;;0.00;0.00;;;;;-146.67;29.67;74873.25;5064787;28;61885;-82
2022/07/06 02:05:49;;;;;;;;;0.00;0.00;;;;;-146.67;29.52;74881.25;5062813;28;62040;-82
2022/07/06 02:08:14;;;;;;;;;0.00;0.00;;;;;-146.67;29.85;74889.22;5063292;28;61800;-82
2022/07/06 02:10:40;;;;;;;;;0.00;0.00;;;;;-146.67;29.88;74881.25;5063768;28;61796;-82
2022/07/06 02:13:05;;;;;;;;;0.00;0.00;;;;;-146.67;29.78;74875.25;5059383;28;61895;-82
2022/07/06 02:15:31;;;;;;;;;0.00;0.00;;;;;-146.67;29.72;74863.28;5059914;28;62054;-82
2022/07/06 02:17:56;;;;;;;;;0.00;0.00;;;;;-146.67;29.80;74865.28;5063195;28;61742;-81
2022/07/06 02:20:22;;;;;;;;;0.00;0.00;;;;;-146.67;30.04;74865.28;5068102;28;64947;-82
2022/07/06 02:22:47;;;;;;;;;0.00;0.00;;;;;-146.67;29.78;74859.28;5067014;28;61888;-82
2022/07/06 02:25:13;;;;;;;;;0.00;0.00;;;;;-146.67;29.75;74863.28;5063964;28;61967;-82
2022/07/06 02:27:38;;;;;;;;;0.00;0.00;;;;;-146.67;30.05;74865.28;5064338;28;61704;-82
2022/07/06 02:30:05;;;;;;;;;0.00;0.00;;;;;-146.67;29.29;74861.28;5061782;28;64595;-82
2022/07/06 02:32:31;;;;;;;;;0.00;0.00;;;;;-146.67;29.41;74863.28;5064472;28;61764;-82
2022/07/06 02:34:57;;;;;;;;;0.00;0.00;;;;;-146.67;29.93;74863.28;5062900;28;61857;-82
2022/07/06 02:37:23;;;;;;;;;0.00;0.00;;;;;-146.67;30.23;74859.28;5062422;28;62762;-83
2022/07/06 02:39:48;;;;;;;;;0.00;0.00;;;;;-146.67;30.14;74861.28;5063148;28;62141;-82
2022/07/06 02:42:14;;;;;;;;;0.00;0.00;;;;;-146.67;30.29;74869.28;5064161;28;61929;-82
2022/07/06 02:44:39;;;;;;;;;0.00;0.00;;;;;-146.67;30.12;74869.28;5063682;28;61793;-82
2022/07/06 02:47:04;;;;;;;;;0.00;0.00;;;;;-146.67;30.58;74867.28;5062804;28;62146;-82
2022/07/06 02:49:30;;;;;;;;;0.00;0.00;;;;;-146.67;29.95;74877.25;5063159;28;62938;-82
2022/07/06 02:51:55;;;;;;;;;0.00;0.00;;;;;-146.67;30.11;74897.22;5063232;28;61981;-82
2022/07/06 02:54:21;;;;;;;;;0.00;0.00;;;;;-146.67;30.24;74907.22;5062220;28;62266;-82
2022/07/06 02:56:50;;;;;;;;;0.00;0.00;;;;;-146.67;30.34;74915.19;5063784;28;61915;-82
2022/07/06 02:59:16;;;;;;;;;0.00;0.00;;;;;-146.67;30.44;74923.19;5062825;28;62062;-82
2022/07/06 03:01:42;;;;;;;;;0.00;0.00;;;;;-146.67;30.44;74925.19;5063692;28;62272;-82
2022/07/06 03:04:07;;;;;;;;;0.00;0.00;;;;;-146.67;30.57;74927.16;5063451;28;61863;-82
2022/07/06 03:06:33;;;;;;;;;0.00;0.00;;;;;-146.67;30.55;74925.19;5063827;28;61830;-82
2022/07/06 03:08:58;;;;;;;;;0.00;0.00;;;;;-146.67;30.42;74927.16;5062734;28;61860;-82
2022/07/06 03:11:23;;;;;;;;;0.00;0.00;;;;;-146.67;30.51;74929.16;5063392;28;62229;-82
2022/07/06 03:13:49;;;;;;;;;0.00;0.00;;;;;-146.67;30.44;74931.16;5055161;28;62131;-82
2022/07/06 03:16:14;;;;;;;;;0.00;0.00;;;;;-146.67;30.64;74945.16;5062461;28;62173;-82
2022/07/06 03:18:40;;;;;;;;;0.00;0.00;;;;;-146.67;30.88;74955.13;5062960;28;61987;-82
2022/07/06 03:21:05;;;;;;;;;0.00;0.00;;;;;-146.67;30.91;74955.13;5062849;28;62062;-82
2022/07/06 03:23:31;;;;;;;;;0.00;0.00;;;;;-146.67;30.65;74953.13;5062574;28;61912;-82
2022/07/06 03:25:56;;;;;;;;;0.00;0.00;;;;;-146.67;30.68;74965.09;5062001;28;61893;-82
2022/07/06 03:28:22;;;;;;;;;2.00;2.00;;;;;-146.67;30.60;74971.09;5062199;28;62098;-82
2022/07/06 03:30:47;;;;;;;;;0.00;0.00;;;;;-146.67;30.69;74967.09;5063438;28;62361;-82
2022/07/06 03:33:13;;;;;;;;;0.00;0.00;;;;;-146.67;30.85;74983.06;5063043;28;61762;-82
2022/07/06 03:35:38;;;;;;;;;0.00;0.00;;;;;-146.67;31.03;74991.06;5063104;28;62059;-82
2022/07/06 03:38:03;;;;;;;;;0.00;0.00;;;;;-146.67;31.08;74997.06;5062313;28;61976;-82
2022/07/06 03:40:29;;;;;;;;;0.00;0.00;;;;;-146.67;31.47;74987.06;5063174;28;61843;-82
2022/07/06 03:42:54;;;;;;;;;0.00;0.00;;;;;-146.67;31.05;74983.06;5062724;28;61921;-82
2022/07/06 03:45:20;;;;;;;;;0.00;0.00;;;;;-146.67;31.23;74983.06;5063279;28;61745;-82
2022/07/06 03:47:45;;;;;;;;;0.00;0.00;;;;;-146.67;31.02;74981.09;5060810;28;63490;-82
2022/07/06 03:50:11;;;;;;;;;0.00;0.00;;;;;-146.67;30.88;74985.06;5062945;28;61804;-82
2022/07/06 03:52:39;;;;;;;;;0.00;0.00;;;;;-146.67;31.37;74987.06;5062387;28;62051;-82
2022/07/06 03:55:10;;;;;;;;;0.00;0.00;;;;;-146.67;31.12;75003.03;5062829;28;62309;-81
2022/07/06 03:57:36;;;;;;;;;0.00;0.00;;;;;-146.67;31.45;75009.03;5061861;28;62631;-82
2022/07/06 04:00:03;;;;;;;;;0.00;0.00;;;;;-146.67;31.14;75009.03;5062954;28;62036;-82
2022/07/06 04:02:29;;;;;;;;;0.00;0.00;;;;;-146.67;31.34;75021.00;5062765;28;62033;-82
2022/07/06 04:04:54;;;;;;;;;0.00;0.00;;;;;-146.67;31.13;75021.00;5061715;28;61773;-82
2022/07/06 04:07:20;;;;;;;;;0.00;0.00;;;;;-146.67;31.45;75017.03;5060835;28;61998;-82
2022/07/06 04:09:45;;;;;;;;;0.00;0.00;;;;;-146.67;31.48;75019.03;5062593;28;61881;-82
2022/07/06 04:12:11;;;;;;;;;0.00;0.00;;;;;-146.67;31.34;75025.00;5062370;28;62125;-82
2022/07/06 04:14:36;;;;;;;;;0.00;0.00;;;;;-146.67;31.13;75035.00;5060492;28;61770;-82
2022/07/06 04:19:46;;;;;;;;;0.00;0.00;;;;;-146.67;31.21;75027.00;5062271;28;61841;-82
2022/07/06 04:22:12;;;;;;;;;0.00;0.00;;;;;-146.67;31.55;75035.00;5062248;28;61829;-82
2022/07/06 04:24:37;;;;;;;;;0.00;0.00;;;;;-146.67;31.53;75039.00;5062132;28;61805;-82
2022/07/06 04:27:03;;;;;;;;;0.00;0.00;;;;;-146.67;31.39;75035.00;5061391;28;63016;-81
2022/07/06 04:29:28;;;;;;;;;0.00;0.00;;;;;-146.67;31.42;75037.00;5062226;28;61726;-81
2022/07/06 04:31:54;;;;;;;;;0.00;0.00;;;;;-146.67;31.67;75031.00;5062512;28;61972;-81
2022/07/06 04:34:19;;;;;;;;;0.00;0.00;;;;;-146.67;31.51;75027.00;5062656;28;61714;-81
2022/07/06 04:36:44;;;;;;;;;0.00;0.00;;;;;-146.67;31.42;75033.00;5061714;28;61987;-81
2022/07/06 04:39:10;;;;;;;;;0.00;0.00;;;;;-146.67;31.60;75023.00;5060520;28;62075;-81
2022/07/06 04:41:35;;;;;;;;;0.00;0.00;;;;;-146.67;31.79;75015.03;5061433;28;61773;-81
2022/07/06 04:44:01;;;;;;;;;0.00;0.00;;;;;-146.67;31.85;74985.06;5061607;28;61787;-81
2022/07/06 04:46:26;;;;;;;;;0.00;0.00;;;;;-146.67;31.54;74985.06;5060879;28;62292;-81
2022/07/06 04:48:51;;;;;;;;;0.00;0.00;;;;;-146.67;31.63;74979.09;5061279;28;62028;-81
2022/07/06 04:51:17;;;;;;;;;0.00;0.00;;;;;-146.67;31.18;74981.09;5061086;28;62476;-81
2022/07/06 04:53:42;;;;;;;;;0.00;0.00;;;;;-146.67;31.31;74993.06;5061303;28;61982;-81
2022/07/06 04:56:08;;;;;;;;;0.00;0.00;;;;;-146.67;31.68;74989.06;5060152;28;61988;-81
2022/07/06 04:58:33;;;;;;;;;0.00;0.00;;;;;-146.67;31.58;74987.06;5059932;28;61798;-81
2022/07/06 05:00:59;;;;;;;;;0.00;0.00;;;;;-146.67;30.90;74993.06;5059975;28;62159;-81
2022/07/06 05:03:24;;;;;;;;;0.00;0.00;;;;;-146.67;31.14;75007.03;5062021;28;62011;-87
2022/07/06 05:05:50;;;;;;;;;0.00;0.00;;;;;-146.67;31.24;75007.03;5059975;28;65143;-90
2022/07/06 05:08:15;;;;;;;;;0.00;0.00;;;;;-146.67;31.35;75019.03;5061838;28;61925;-79
2022/07/06 05:10:40;;;;;;;;;0.00;0.00;;;;;-146.67;31.62;75021.00;5061841;28;62308;-82
2022/07/06 05:13:06;;;;;;;;;0.00;0.00;;;;;-146.67;31.77;75021.00;5060660;28;61809;-80
2022/07/06 05:15:33;;;;;;;;;0.00;0.00;;;;;-146.67;31.49;75023.00;5061397;28;61857;-81
2022/07/06 05:18:01;;;;;;;;;0.00;0.00;;;;;-146.67;31.35;75015.03;5060146;28;61995;-79
2022/07/06 05:20:26;;;;;;;;;0.00;0.00;;;;;-146.67;31.18;75031.00;5064946;28;61754;-74
2022/07/06 05:22:51;;;;;;;;;0.00;0.00;;;;;-146.67;31.60;75019.03;5064562;28;62120;-81
2022/07/06 05:25:17;;;;;;;;;0.00;0.00;;;;;-146.67;32.07;75015.03;5064697;28;63001;-93
2022/07/06 05:27:42;;;;;;;;;0.00;0.00;;;;;-146.67;31.41;74995.06;5065347;28;61841;-82
2022/07/06 05:30:09;;;;;;;;;0.00;0.00;;;;;-146.67;32.05;74979.09;5072888;28;61844;-83
2022/07/06 05:32:34;;;;;;;;;0.00;0.00;;;;;-146.67;31.71;74947.13;5063630;28;62011;-82
2022/07/06 05:35:00;;;;;;;;;0.00;0.00;;;;;-146.67;31.04;74925.19;5071963;28;63771;-82
2022/07/06 05:37:25;;;;;;;;;0.00;0.00;;;;;-146.67;30.98;74877.25;5070019;28;62397;-83
2022/07/06 05:39:51;;;;;;;;;0.00;0.00;;;;;-146.67;30.60;74845.31;5075099;28;61991;-82
2022/07/06 05:42:16;;;;;;;;;0.00;0.00;;;;;-146.67;30.45;74771.44;5071199;27;61897;-82
2022/07/06 05:44:42;;;;;;;;;0.00;0.00;;;;;-146.67;29.61;74675.59;5072302;28;62276;-83
2022/07/06 05:52:35;;;;;;;;;0.00;0.00;;;;;-146.67;28.04;74461.97;5083430;28;61935;-82
2022/07/06 05:55:01;;;;;;;;;0.00;0.00;;;;;-146.67;28.15;74459.97;5084320;27;62977;-82
2022/07/06 05:57:27;;;;;;;;;0.00;0.00;;;;;-146.67;28.10;74418.06;5085047;28;62394;-82
2022/07/06 05:59:52;;;;;;;;;0.00;0.00;;;;;-146.67;27.83;74394.09;5084572;27;61852;-83
2022/07/06 06:02:18;;;;;;;;;0.00;0.00;;;;;-146.67;27.82;74418.06;5083413;27;61784;-85
2022/07/06 06:04:43;;;;;;;;;0.00;0.00;;;;;-146.67;28.01;74440.00;5084392;27;62776;-82
2022/07/06 06:07:09;;;;;;;;;0.00;0.00;;;;;-146.67;28.04;74448.00;5084312;27;61868;-82
2022/07/06 06:09:34;;;;;;;;;0.00;0.00;;;;;-146.67;28.02;74450.00;5084813;27;62328;-82
2022/07/06 06:11:59;;;;;;;;;0.00;0.00;;;;;-146.67;27.93;74452.00;5084798;27;61980;-88
2022/07/06 06:14:25;;;;;;;;;0.00;0.00;;;;;-146.67;27.88;74479.94;5062957;27;61981;-81
2022/07/06 06:16:50;;;;;;;;;0.00;0.00;;;;;-146.67;28.04;74497.91;5046716;28;61934;-82
2022/07/06 06:19:16;;;;;;;;;0.00;0.00;;;;;-146.67;28.03;74499.91;5066896;28;61737;-88
2022/07/06 06:21:41;;;;;;;;;0.00;0.00;;;;;-146.67;28.10;74483.94;5066699;28;62381;-88
2022/07/06 06:24:07;;;;;;;;;0.00;0.00;;;;;-146.67;27.82;74469.97;5062611;28;62079;-87
2022/07/06 06:26:32;;;;;;;;;0.00;0.00;;;;;-146.67;28.05;74438.03;5063857;28;61813;-88
2022/07/06 06:28:58;;;;;;;;;0.00;0.00;;;;;-146.67;27.35;74342.19;5064348;28;61858;-87
2022/07/06 06:31:23;;;;;;;;;0.00;0.00;;;;;-146.67;26.33;74200.44;5067523;28;62205;-88
2022/07/06 06:33:49;;;;;;;;;0.00;0.00;;;;;-146.67;26.27;74152.53;5075788;27;62010;-88
2022/07/06 06:36:14;;;;;;;;;0.00;0.00;;;;;-146.67;26.11;74130.59;5067727;28;61829;-88
2022/07/06 06:38:40;;;;;;;;;0.00;0.00;;;;;-146.67;25.89;74108.63;5071240;28;62234;-89
2022/07/06 06:41:05;;;;;;;;;0.00;0.00;;;;;-146.67;26.05;74160.53;5060521;28;62580;-88
2022/07/06 06:43:31;;;;;;;;;0.00;0.00;;;;;-146.67;26.26;74218.41;5042898;28;63132;-88
2022/07/06 06:45:56;;;;;;;;;0.00;0.00;;;;;-146.67;26.40;74260.34;5056564;28;62004;-88
2022/07/06 06:48:22;;;;;;;;;0.00;0.00;;;;;-146.67;26.50;74302.25;5063464;28;61810;-88
2022/07/06 06:50:47;;;;;;;;;0.00;0.00;;;;;-146.67;26.70;74342.19;5061793;28;62068;-87
2022/07/06 06:53:13;;;;;;;;;0.00;0.00;;;;;-146.67;26.78;74376.13;5062102;28;63544;-88
2022/07/06 06:55:38;;;;;;;;;0.00;0.00;;;;;-146.67;26.92;74398.09;5063693;28;61928;-88
2022/07/06 06:58:04;;;;;;;;;0.00;0.00;;;;;-146.67;27.24;74410.06;5063595;28;61966;-88
2022/07/06 07:00:29;;;;;;;;;0.00;0.00;;;;;-146.67;26.96;74424.03;5063915;28;61910;-87
2022/07/06 07:02:55;;;;;;;;;0.00;0.00;;;;;-146.67;27.25;74424.03;5062771;28;62672;-87
2022/07/06 07:05:20;;;;;;;;;0.00;0.00;;;;;-146.67;26.99;74418.06;5063412;28;61849;-88
2022/07/06 07:07:46;;;;;;;;;0.00;0.00;;;;;-146.67;27.25;74412.06;5061732;28;61856;-87
2022/07/06 07:10:11;;;;;;;;;0.00;0.00;;;;;-146.67;26.95;74400.09;5063591;28;61973;-88
2022/07/06 07:12:46;;;;;;;;;0.00;0.00;;;;;-146.67;26.65;74420.06;5059895;28;65121;-87
2022/07/06 07:15:13;;;;;;;;;0.00;0.00;;;;;-146.67;26.48;74410.06;5043086;28;62110;-88
2022/07/06 07:17:39;;;;;;;;;0.00;0.00;;;;;-146.67;26.51;74404.09;5042151;28;61940;-89
2022/07/06 07:20:06;;;;;;;;;0.00;0.00;;;;;-146.67;26.71;74412.06;5042748;28;61779;-88
2022/07/06 07:22:31;;;;;;;;;0.00;0.00;;;;;-146.67;26.73;74418.06;5056655;28;63932;-88
2022/07/06 07:24:58;;;;;;;;;0.00;0.00;;;;;-146.67;26.86;74416.06;5063276;28;62255;-88
2022/07/06 07:27:24;;;;;;;;;0.00;0.00;;;;;-146.67;26.45;74436.03;5063446;28;61841;-88
2022/07/06 07:29:50;;;;;;;;;0.00;0.00;;;;;-146.67;26.41;74440.00;5063188;28;62395;-88
2022/07/06 07:32:15;;;;;;;;;0.00;0.00;;;;;-146.67;26.26;74428.03;5062377;28;61732;-88
2022/07/06 07:34:41;;;;;;;;;0.00;0.00;;;;;-146.67;26.41;74442.00;5062568;28;61781;-87
2022/07/06 07:37:06;;;;;;;;;0.00;0.00;;;;;-146.67;26.33;74428.03;5062940;28;62118;-88
2022/07/06 07:39:32;;;;;;;;;0.00;0.00;;;;;-146.67;26.39;74430.03;5063334;28;61908;-87
2022/07/06 07:41:57;;;;;;;;;0.00;0.00;;;;;-146.67;26.41;74430.03;5061050;28;62131;-87
2022/07/06 07:44:24;;;;;;;;;0.00;0.00;;;;;-146.67;26.12;74426.03;5062628;28;61739;-88
2022/07/06 07:46:52;;;;;;;;;0.00;0.00;;;;;-146.67;26.17;74424.03;5063079;28;61833;-88
2022/07/06 07:49:18;;;;;;;;;0.00;0.00;;;;;-146.67;26.03;74430.03;5062732;28;62002;-88
2022/07/06 07:51:46;;;;;;;;;0.00;0.00;;;;;-146.67;25.94;74438.03;5061451;28;61867;-86
2022/07/06 07:54:12;;;;;;;;;0.00;0.00;;;;;-146.67;26.16;74430.03;5061066;28;61947;-88
2022/07/06 07:56:40;;;;;;;;;0.00;0.00;;;;;-146.67;25.99;74434.03;5062976;28;62470;-87
2022/07/06 07:59:06;;;;;;;;;0.00;0.00;;;;;-146.67;26.28;74432.03;5061506;28;62289;-88
2022/07/06 08:01:32;;;;;;;;;0.00;0.00;;;;;-146.67;26.05;74424.03;5061901;28;61766;-88
2022/07/06 08:03:57;;;;;;;;;0.00;0.00;;;;;-146.67;26.03;74416.06;5060570;28;61741;-88
2022/07/06 08:06:23;;;;;;;;;0.00;0.00;;;;;-146.67;26.25;74418.06;5062499;28;62045;-88
2022/07/06 08:08:48;;;;;;;;;0.00;0.00;;;;;-146.67;26.05;74420.06;5061332;28;61800;-88
2022/07/06 08:11:14;;;;;;;;;0.00;0.00;;;;;-146.67;26.08;74420.06;5060893;28;64038;-88
2022/07/06 08:13:39;;;;;;;;;0.00;0.00;;;;;-146.67;26.15;74422.03;5057201;28;61904;-87
2022/07/06 08:16:05;;;;;;;;;0.00;0.00;;;;;-146.67;26.10;74422.03;5054992;28;61921;-88
2022/07/06 08:18:30;;;;;;;;;0.00;0.00;;;;;-146.67;26.45;74422.03;5062259;28;61761;-88
2022/07/06 08:20:56;;;;;;;;;1.33;1.33;;;;;-146.67;26.21;74418.06;5061041;28;62547;-86
2022/07/06 08:23:23;;;;;;;;;0.00;0.00;;;;;-146.67;26.09;74420.06;5062172;28;62100;-87
2022/07/06 08:25:48;;;;;;;;;0.00;0.00;;;;;-146.67;26.05;74430.03;5062054;28;62037;-88
2022/07/06 08:28:14;;;;;;;;;0.00;0.00;;;;;-146.67;26.08;74436.03;5060970;28;61914;-88
2022/07/06 08:30:39;;;;;;;;;0.00;0.00;;;;;-146.67;26.17;74448.00;5061740;28;61888;-88
2022/07/06 08:33:05;;;;;;;;;0.00;0.00;;;;;-146.67;26.13;74467.97;5060955;28;61907;-88
2022/07/06 08:35:31;;;;;;;;;0.00;0.00;;;;;-146.67;26.11;74473.97;5062390;28;62020;-86
2022/07/06 08:37:57;;;;;;;;;0.00;0.00;;;;;-146.67;26.22;74471.97;5070073;28;62001;-86
2022/07/06 08:40:22;;;;;;;;;0.00;0.00;;;;;-146.67;26.34;74467.97;5068327;28;61848;-86
2022/07/06 08:42:53;;;;;;;;;0.00;0.00;;;;;-146.67;26.37;74448.00;5071081;27;61971;-87
2022/07/06 08:45:20;;;;;;;;;0.00;0.00;;;;;-146.67;26.34;74422.03;5070542;28;61815;-87
2022/07/06 08:47:49;;;;;;;;;0.00;0.00;;;;;-146.67;26.31;74410.06;5074400;28;62038;-86
2022/07/06 08:50:16;;;;;;;;;0.00;0.00;;;;;-146.67;26.50;74412.06;5071935;27;61979;-86
2022/07/06 08:52:42;;;;;;;;;0.00;0.00;;;;;-146.67;26.57;74432.03;5070122;28;62187;-86
2022/07/06 08:55:12;;;;;;;;;0.00;0.00;;;;;-146.67;26.32;74428.03;5070264;28;61864;-86
2022/07/06 08:57:39;;;;;;;;;0.00;0.00;;;;;-146.67;26.62;74426.03;5074890;27;62143;-86
2022/07/06 09:00:09;;;;;;;;;0.00;0.00;;;;;-146.67;26.72;74392.09;5071431;28;63968;-86
2022/07/06 09:02:34;;;;;;;;;0.00;0.00;;;;;-146.67;26.35;74360.16;5071097;27;62081;-87
2022/07/06 09:05:02;;;;;;;;;0.00;0.00;;;;;-146.67;26.39;74360.16;5064150;28;61863;-84
2022/07/06 09:07:29;;;;;;;;;0.00;0.00;;;;;-146.67;26.21;74362.16;5064549;28;61872;-87
2022/07/06 09:09:56;;;;;;;;;0.00;0.00;;;;;-146.67;26.23;74340.19;5062351;28;62845;-86
2022/07/06 09:12:21;;;;;;;;;0.00;0.00;;;;;-146.67;26.34;74318.25;5063099;28;61908;-86
2022/07/06 09:14:47;;;;;;;;;0.00;0.00;;;;;-146.67;26.28;74294.28;5062613;28;61779;-86
2022/07/06 09:17:13;;;;;;;;;0.00;0.00;;;;;-146.67;26.14;74278.31;5061939;28;61857;-86
2022/07/06 09:19:39;;;;;;;;;0.00;0.00;;;;;-146.67;25.83;74268.31;5061335;28;64245;-87
2022/07/06 09:22:05;;;;;;;;;0.00;0.00;;;;;-146.67;26.17;74268.31;5064525;28;61891;-86
2022/07/06 09:24:31;;;;;;;;;0.00;0.00;;;;;-146.67;25.98;74276.31;5064602;28;61976;-86
2022/07/06 09:26:58;;;;;;;;;0.00;0.00;;;;;-146.67;26.13;74310.25;5063818;28;61939;-87
2022/07/06 09:29:33;;;;;;;;;0.00;0.00;;;;;-146.67;26.10;74330.22;5063582;28;61968;-86
2022/07/06 09:32:05;;;;;;;;;0.00;0.00;;;;;-146.67;26.24;74310.25;5068514;28;61870;-87
2022/07/06 09:34:42;;;;;;;;;0.00;0.00;;;;;-146.67;26.35;74310.25;5064022;28;61990;-86
2022/07/06 09:37:08;;;;;;;;;0.00;0.00;;;;;-146.67;26.04;74296.28;5069210;28;61915;-87
2022/07/06 09:39:33;;;;;;;;;0.00;0.00;;;;;-146.67;25.93;74276.31;5079418;28;61735;-87
2022/07/06 09:42:03;;;;;;;;;0.00;0.00;;;;;-146.67;26.09;74270.31;5071605;27;61957;-86
2022/07/06 09:44:36;;;;;;;;;0.00;0.00;;;;;-146.67;25.68;74268.31;5076254;27;61713;-86
2022/07/06 09:47:04;;;;;;;;;0.00;0.00;;;;;-146.67;25.75;74254.34;5072781;28;62205;-86
2022/07/06 09:49:30;;;;;;;;;0.00;0.00;;;;;-146.67;25.90;74214.44;5081371;28;61957;-87
2022/07/06 09:51:57;;;;;;;;;0.00;0.00;;;;;-146.67;25.88;74200.44;5078887;28;61835;-86
2022/07/06 09:54:23;;;;;;;;;0.00;0.00;;;;;-146.67;25.42;74174.50;5075517;28;61950;-87
2022/07/06 09:56:51;;;;;;;;;0.00;0.00;;;;;-146.67;25.19;74186.47;5078260;27;61671;-87
2022/07/06 09:59:18;;;;;;;;;0.00;0.00;;;;;-146.67;25.54;74176.50;5082007;27;62314;-86
2022/07/06 10:01:44;;;;;;;;;0.00;0.00;;;;;-146.67;25.36;74178.50;5081856;28;62450;-86
2022/07/06 10:04:18;;;;;;;;;0.00;0.00;;;;;-146.67;25.20;74186.47;5078453;27;61875;-87
2022/07/06 10:06:44;;;;;;;;;0.00;0.00;;;;;-146.67;25.22;74206.44;5070390;28;61877;-86
2022/07/06 10:09:11;;;;;;;;;0.00;0.00;;;;;-146.67;25.18;74186.47;5076821;27;62828;-86
2022/07/06 10:11:47;;;;;;;;;0.00;0.00;;;;;-146.67;25.45;74136.56;5080486;27;62296;-86
2022/07/06 10:14:16;;;;;;;;;0.00;0.00;;;;;-146.67;25.05;74086.66;5069062;27;61943;-86
2022/07/06 10:16:43;;;;;;;;;0.00;0.00;;;;;-146.67;25.13;74064.72;5077214;28;61949;-87
2022/07/06 10:19:09;;;;;;;;;0.00;0.00;;;;;-146.67;24.65;74016.78;5077088;28;61870;-86
2022/07/06 10:21:37;;;;;;;;;0.00;0.00;;;;;-146.67;25.30;73976.88;5080856;28;62259;-87
2022/07/06 10:24:04;;;;;;;;;0.00;0.00;;;;;-146.67;24.84;73934.94;5078829;28;61823;-87
2022/07/06 10:26:31;;;;;;;;;0.00;0.00;;;;;-146.67;24.57;73968.88;5072133;28;61937;-83
2022/07/06 10:28:59;;;;;;;;;0.00;0.00;;;;;-146.67;24.88;74010.81;5071598;27;62071;-85
2022/07/06 10:31:26;;;;;;;;;66.00;57.00;;;;;-146.67;24.68;74028.78;5073821;28;62162;-86
2022/07/06 10:33:53;;;;;;;;;0.00;0.00;;;;;-146.67;24.93;74048.75;5071157;28;61828;-85
2022/07/06 10:36:18;;;;;;;;;0.00;0.00;;;;;-146.67;24.54;74010.81;5081073;28;61894;-83
2022/07/06 10:38:49;;;;;;;;;0.00;0.00;;;;;-146.67;25.00;73992.84;5070710;28;64841;-85
2022/07/06 10:41:15;;;;;;;;;0.00;0.00;;;;;-146.67;24.79;73954.91;5075472;28;61859;-84
2022/07/06 10:43:46;;;;;;;;;0.00;0.00;;;;;-146.67;24.17;73950.94;5069291;28;61855;-83
2022/07/06 10:46:13;;;;;;;;;0.00;0.00;;;;;-146.67;24.36;73936.94;5073711;27;62117;-83
2022/07/06 10:48:44;;;;;;;;;0.00;0.00;;;;;-146.67;24.14;73918.97;5073720;28;63129;-85
2022/07/06 10:51:24;;;;;;;;;0.00;0.00;;;;;-146.67;24.11;73903.00;5070616;28;62047;-82
2022/07/06 10:53:58;;;;;;;;;0.33;0.33;;;;;-146.67;24.34;73897.03;5068763;28;61837;-81
2022/07/06 10:56:40;;;;;;;;;0.00;0.00;;;;;-146.67;24.25;73895.03;5061402;28;61862;-80
2022/07/06 10:59:11;;;;;;;;;0.00;0.00;;;;;-146.67;24.44;73905.00;5062947;28;62660;-80
2022/07/06 11:01:36;;;;;;;;;0.00;0.00;;;;;-146.67;23.94;73909.00;5063994;28;62001;-82
2022/07/06 11:04:03;;;;;;;;;0.00;0.00;;;;;-146.67;24.20;73944.94;5063593;28;61911;-87
2022/07/06 11:06:32;;;;;;;;;0.00;0.00;;;;;-146.67;24.91;73982.88;5063082;28;61797;-79
2022/07/06 11:09:05;;;;;;;;;0.00;0.00;;;;;-146.67;24.59;74006.81;5062713;28;62805;-78
2022/07/06 11:11:30;;;;;;;;;0.00;0.00;;;;;-146.67;24.50;74000.81;5063032;28;61827;-79
2022/07/06 11:14:01;;;;;;;;;0.00;0.00;;;;;-146.67;24.34;73982.88;5061386;28;61995;-78
2022/07/06 11:16:30;;;;;;;;;0.00;0.00;;;;;-146.67;24.20;73950.94;5062651;28;61856;-79
2022/07/06 11:19:11;;;;;;;;;0.00;0.00;;;;;-146.67;24.32;73909.00;5062929;28;62657;-83
2022/07/06 11:21:51;;;;;;;;;0.00;0.00;;;;;-146.67;24.21;73893.03;5070562;28;62016;-83